sensor_id;sensor_type;location;lat;lon;timestamp;temperature;humidity
810;DHT22;387;48.772;9.186;2024-03-23T00:54:19;11.10;69.70
810;DHT22;387;48.772;9.186;2024-03-23T00:56:45;11.10;69.50
810;DHT22;387;48.772;9.186;2024-03-23T00:59:10;11.20;69.40
810;DHT22;387;48.772;9.186;2024-03-23T01:01:37;11.10;69.40
810;DHT22;387;48.772;9.186;2024-03-23T01:04:03;11.00;69.70
810;DHT22;387;48.772;9.186;2024-03-23T01:06:28;11.00;69.80
810;DHT22;387;48.772;9.186;2024-03-23T01:08:54;11.00;69.80
810;DHT22;387;48.772;9.186;2024-03-23T01:11:19;11.00;69.70
810;DHT22;387;48.772;9.186;2024-03-23T01:13:45;11.00;69.70
810;DHT22;387;48.772;9.186;2024-03-23T01:16:11;11.00;69.80
810;DHT22;387;48.772;9.186;2024-03-23T01:18:36;11.10;69.70
810;DHT22;387;48.772;9.186;2024-03-23T01:21:02;11.20;69.40
810;DHT22;387;48.772;9.186;2024-03-23T01:23:27;11.20;69.40
810;DHT22;387;48.772;9.186;2024-03-23T01:25:54;11.30;69.10
810;DHT22;387;48.772;9.186;2024-03-23T01:28:20;11.40;69.20
810;DHT22;387;48.772;9.186;2024-03-23T01:30:46;11.60;68.90
810;DHT22;387;48.772;9.186;2024-03-23T01:33:12;11.80;68.60
810;DHT22;387;48.772;9.186;2024-03-23T01:35:38;11.80;68.30
810;DHT22;387;48.772;9.186;2024-03-23T01:38:04;11.70;68.60
810;DHT22;387;48.772;9.186;2024-03-23T01:40:29;11.60;68.90
810;DHT22;387;48.772;9.186;2024-03-23T01:43:06;11.60;69.10
810;DHT22;387;48.772;9.186;2024-03-23T01:45:33;11.80;68.80
810;DHT22;387;48.772;9.186;2024-03-23T01:47:59;11.80;68.80
810;DHT22;387;48.772;9.186;2024-03-23T01:50:26;11.70;68.90
810;DHT22;387;48.772;9.186;2024-03-23T01:52:52;11.70;68.90
810;DHT22;387;48.772;9.186;2024-03-23T01:55:18;11.90;68.90
810;DHT22;387;48.772;9.186;2024-03-23T01:57:44;12.00;68.80
810;DHT22;387;48.772;9.186;2024-03-23T02:00:10;12.20;68.30
810;DHT22;387;48.772;9.186;2024-03-23T02:02:44;12.30;68.30
810;DHT22;387;48.772;9.186;2024-03-23T02:05:11;12.50;68.20
810;DHT22;387;48.772;9.186;2024-03-23T02:07:38;12.60;68.00
810;DHT22;387;48.772;9.186;2024-03-23T02:10:05;12.70;68.00
810;DHT22;387;48.772;9.186;2024-03-23T02:12:31;12.70;67.90
810;DHT22;387;48.772;9.186;2024-03-23T02:14:56;12.80;67.90
810;DHT22;387;48.772;9.186;2024-03-23T02:17:22;12.70;68.00
810;DHT22;387;48.772;9.186;2024-03-23T02:19:47;12.60;68.20
810;DHT22;387;48.772;9.186;2024-03-23T02:22:13;12.50;68.30
810;DHT22;387;48.772;9.186;2024-03-23T02:24:40;12.30;68.50
810;DHT22;387;48.772;9.186;2024-03-23T02:27:06;12.10;68.80
810;DHT22;387;48.772;9.186;2024-03-23T02:29:31;12.00;68.90
810;DHT22;387;48.772;9.186;2024-03-23T02:31:57;11.90;68.90
810;DHT22;387;48.772;9.186;2024-03-23T02:34:24;12.00;69.10
810;DHT22;387;48.772;9.186;2024-03-23T02:36:50;11.90;69.10
810;DHT22;387;48.772;9.186;2024-03-23T02:39:16;12.00;69.10
810;DHT22;387;48.772;9.186;2024-03-23T02:41:41;12.00;69.20
810;DHT22;387;48.772;9.186;2024-03-23T02:44:07;12.10;69.20
810;DHT22;387;48.772;9.186;2024-03-23T02:46:33;12.10;69.20
810;DHT22;387;48.772;9.186;2024-03-23T02:48:59;12.10;69.10
810;DHT22;387;48.772;9.186;2024-03-23T02:51:24;12.20;69.10
810;DHT22;387;48.772;9.186;2024-03-23T02:53:50;12.30;68.90
810;DHT22;387;48.772;9.186;2024-03-23T02:56:15;12.40;68.80
810;DHT22;387;48.772;9.186;2024-03-23T02:58:45;12.50;68.80
810;DHT22;387;48.772;9.186;2024-03-23T03:01:10;12.60;68.60
810;DHT22;387;48.772;9.186;2024-03-23T03:03:36;12.70;68.60
810;DHT22;387;48.772;9.186;2024-03-23T03:06:01;12.70;68.60
810;DHT22;387;48.772;9.186;2024-03-23T03:08:27;12.70;68.60
810;DHT22;387;48.772;9.186;2024-03-23T03:10:53;12.70;68.60
810;DHT22;387;48.772;9.186;2024-03-23T03:13:18;12.70;68.80
810;DHT22;387;48.772;9.186;2024-03-23T03:15:44;12.60;68.80
810;DHT22;387;48.772;9.186;2024-03-23T03:18:09;12.60;68.80
810;DHT22;387;48.772;9.186;2024-03-23T03:20:39;12.60;68.80
810;DHT22;387;48.772;9.186;2024-03-23T03:23:05;12.70;68.80
810;DHT22;387;48.772;9.186;2024-03-23T03:25:30;12.60;68.80
810;DHT22;387;48.772;9.186;2024-03-23T03:27:56;12.70;68.80
810;DHT22;387;48.772;9.186;2024-03-23T03:30:22;12.70;68.90
810;DHT22;387;48.772;9.186;2024-03-23T03:32:47;12.60;68.90
810;DHT22;387;48.772;9.186;2024-03-23T03:35:13;12.60;68.90
810;DHT22;387;48.772;9.186;2024-03-23T03:37:39;12.60;68.90
810;DHT22;387;48.772;9.186;2024-03-23T03:40:05;12.60;69.10
810;DHT22;387;48.772;9.186;2024-03-23T03:42:34;12.50;69.10
810;DHT22;387;48.772;9.186;2024-03-23T03:45:00;12.50;69.10
810;DHT22;387;48.772;9.186;2024-03-23T03:47:26;12.50;69.20
810;DHT22;387;48.772;9.186;2024-03-23T03:49:51;12.40;69.20
810;DHT22;387;48.772;9.186;2024-03-23T03:52:17;12.40;69.40
810;DHT22;387;48.772;9.186;2024-03-23T03:54:43;12.30;69.50
810;DHT22;387;48.772;9.186;2024-03-23T03:57:08;12.30;69.70
810;DHT22;387;48.772;9.186;2024-03-23T03:59:34;12.30;69.90
810;DHT22;387;48.772;9.186;2024-03-23T04:01:59;12.40;70.10
810;DHT22;387;48.772;9.186;2024-03-23T04:04:25;12.60;69.50
810;DHT22;387;48.772;9.186;2024-03-23T04:07:01;12.70;69.20
810;DHT22;387;48.772;9.186;2024-03-23T04:09:27;12.70;69.20
810;DHT22;387;48.772;9.186;2024-03-23T04:11:53;12.70;69.20
810;DHT22;387;48.772;9.186;2024-03-23T04:14:18;12.70;69.10
810;DHT22;387;48.772;9.186;2024-03-23T04:16:44;12.60;69.40
810;DHT22;387;48.772;9.186;2024-03-23T04:19:10;12.60;69.40
810;DHT22;387;48.772;9.186;2024-03-23T04:21:36;12.50;69.50
810;DHT22;387;48.772;9.186;2024-03-23T04:24:02;12.50;69.70
810;DHT22;387;48.772;9.186;2024-03-23T04:26:28;12.50;69.50
810;DHT22;387;48.772;9.186;2024-03-23T04:28:54;12.40;69.50
810;DHT22;387;48.772;9.186;2024-03-23T04:31:19;12.40;69.70
810;DHT22;387;48.772;9.186;2024-03-23T04:33:45;12.40;69.90
810;DHT22;387;48.772;9.186;2024-03-23T04:36:10;12.30;69.90
810;DHT22;387;48.772;9.186;2024-03-23T04:38:36;12.30;70.10
810;DHT22;387;48.772;9.186;2024-03-23T04:41:02;12.20;70.40
810;DHT22;387;48.772;9.186;2024-03-23T04:43:27;12.10;70.80
810;DHT22;387;48.772;9.186;2024-03-23T04:45:53;12.20;71.00
810;DHT22;387;48.772;9.186;2024-03-23T04:48:20;12.30;71.60
810;DHT22;387;48.772;9.186;2024-03-23T04:50:48;12.30;72.40
810;DHT22;387;48.772;9.186;2024-03-23T04:53:14;12.20;74.90
810;DHT22;387;48.772;9.186;2024-03-23T04:55:41;12.10;76.10
810;DHT22;387;48.772;9.186;2024-03-23T04:58:07;12.00;77.30
810;DHT22;387;48.772;9.186;2024-03-23T05:00:32;12.00;78.10
810;DHT22;387;48.772;9.186;2024-03-23T05:02:58;11.90;79.00
810;DHT22;387;48.772;9.186;2024-03-23T05:05:23;11.80;79.90
810;DHT22;387;48.772;9.186;2024-03-23T05:07:49;11.70;80.90
810;DHT22;387;48.772;9.186;2024-03-23T05:10:14;11.60;81.80
810;DHT22;387;48.772;9.186;2024-03-23T05:12:40;11.50;82.40
810;DHT22;387;48.772;9.186;2024-03-23T05:15:07;11.50;82.70
810;DHT22;387;48.772;9.186;2024-03-23T05:17:33;11.40;82.80
810;DHT22;387;48.772;9.186;2024-03-23T05:19:59;11.40;83.30
810;DHT22;387;48.772;9.186;2024-03-23T05:22:25;11.40;83.10
810;DHT22;387;48.772;9.186;2024-03-23T05:24:52;11.40;83.30
810;DHT22;387;48.772;9.186;2024-03-23T05:27:18;11.40;83.70
810;DHT22;387;48.772;9.186;2024-03-23T05:29:44;11.20;83.70
810;DHT22;387;48.772;9.186;2024-03-23T05:32:09;11.10;83.70
810;DHT22;387;48.772;9.186;2024-03-23T05:34:35;11.10;83.70
810;DHT22;387;48.772;9.186;2024-03-23T05:37:00;11.10;83.70
810;DHT22;387;48.772;9.186;2024-03-23T05:39:26;11.00;83.80
810;DHT22;387;48.772;9.186;2024-03-23T05:41:52;10.80;83.70
810;DHT22;387;48.772;9.186;2024-03-23T05:44:18;10.80;83.80
810;DHT22;387;48.772;9.186;2024-03-23T05:46:43;10.70;84.10
810;DHT22;387;48.772;9.186;2024-03-23T05:49:14;10.70;83.80
810;DHT22;387;48.772;9.186;2024-03-23T05:51:39;10.60;83.80
810;DHT22;387;48.772;9.186;2024-03-23T05:54:05;10.70;84.30
810;DHT22;387;48.772;9.186;2024-03-23T05:56:31;10.70;84.60
810;DHT22;387;48.772;9.186;2024-03-23T05:58:57;10.60;84.40
810;DHT22;387;48.772;9.186;2024-03-23T06:01:22;10.50;84.00
810;DHT22;387;48.772;9.186;2024-03-23T06:03:48;10.40;83.60
810;DHT22;387;48.772;9.186;2024-03-23T06:06:14;10.40;83.60
810;DHT22;387;48.772;9.186;2024-03-23T06:08:39;10.20;82.10
810;DHT22;387;48.772;9.186;2024-03-23T06:11:05;10.10;81.70
810;DHT22;387;48.772;9.186;2024-03-23T06:13:34;10.10;81.90
810;DHT22;387;48.772;9.186;2024-03-23T06:16:01;10.10;82.10
810;DHT22;387;48.772;9.186;2024-03-23T06:18:26;10.10;80.00
810;DHT22;387;48.772;9.186;2024-03-23T06:20:53;10.10;80.50
810;DHT22;387;48.772;9.186;2024-03-23T06:23:18;10.20;80.60
810;DHT22;387;48.772;9.186;2024-03-23T06:25:46;10.10;79.60
810;DHT22;387;48.772;9.186;2024-03-23T06:28:11;10.10;79.90
810;DHT22;387;48.772;9.186;2024-03-23T06:30:37;10.10;79.90
810;DHT22;387;48.772;9.186;2024-03-23T06:33:03;10.00;79.60
810;DHT22;387;48.772;9.186;2024-03-23T06:35:28;9.90;79.60
810;DHT22;387;48.772;9.186;2024-03-23T06:37:54;9.90;79.20
810;DHT22;387;48.772;9.186;2024-03-23T06:40:19;9.90;78.00
810;DHT22;387;48.772;9.186;2024-03-23T06:42:45;9.90;78.60
810;DHT22;387;48.772;9.186;2024-03-23T06:45:11;9.90;79.20
810;DHT22;387;48.772;9.186;2024-03-23T06:47:36;9.90;78.70
810;DHT22;387;48.772;9.186;2024-03-23T06:50:03;9.80;77.40
810;DHT22;387;48.772;9.186;2024-03-23T06:52:29;9.70;77.30
810;DHT22;387;48.772;9.186;2024-03-23T06:54:55;9.70;77.80
810;DHT22;387;48.772;9.186;2024-03-23T06:57:21;9.70;77.70
810;DHT22;387;48.772;9.186;2024-03-23T06:59:47;9.70;77.80
810;DHT22;387;48.772;9.186;2024-03-23T07:02:12;9.60;76.70
810;DHT22;387;48.772;9.186;2024-03-23T07:04:38;9.60;77.10
810;DHT22;387;48.772;9.186;2024-03-23T07:07:05;9.50;77.40
810;DHT22;387;48.772;9.186;2024-03-23T07:09:31;9.60;77.30
810;DHT22;387;48.772;9.186;2024-03-23T07:11:57;9.60;77.60
810;DHT22;387;48.772;9.186;2024-03-23T07:14:23;9.60;77.40
810;DHT22;387;48.772;9.186;2024-03-23T07:16:49;9.70;77.10
810;DHT22;387;48.772;9.186;2024-03-23T07:19:18;9.70;77.00
810;DHT22;387;48.772;9.186;2024-03-23T07:21:44;9.60;76.50
810;DHT22;387;48.772;9.186;2024-03-23T07:24:10;9.60;76.50
810;DHT22;387;48.772;9.186;2024-03-23T07:26:36;9.60;76.50
810;DHT22;387;48.772;9.186;2024-03-23T07:29:01;9.60;76.50
810;DHT22;387;48.772;9.186;2024-03-23T07:31:27;9.60;76.10
810;DHT22;387;48.772;9.186;2024-03-23T07:33:53;9.70;76.40
810;DHT22;387;48.772;9.186;2024-03-23T07:36:18;9.80;75.70
810;DHT22;387;48.772;9.186;2024-03-23T07:38:44;9.70;76.20
810;DHT22;387;48.772;9.186;2024-03-23T07:41:17;9.70;76.70
810;DHT22;387;48.772;9.186;2024-03-23T07:43:43;9.70;76.20
810;DHT22;387;48.772;9.186;2024-03-23T07:46:09;9.90;76.50
810;DHT22;387;48.772;9.186;2024-03-23T07:48:35;9.80;76.10
810;DHT22;387;48.772;9.186;2024-03-23T07:53:34;9.60;77.00
810;DHT22;387;48.772;9.186;2024-03-23T07:56:00;9.50;77.70
810;DHT22;387;48.772;9.186;2024-03-23T07:58:27;9.20;80.50
810;DHT22;387;48.772;9.186;2024-03-23T08:00:56;9.00;81.70
810;DHT22;387;48.772;9.186;2024-03-23T08:03:22;8.90;81.80
810;DHT22;387;48.772;9.186;2024-03-23T08:05:48;8.70;81.70
810;DHT22;387;48.772;9.186;2024-03-23T08:08:14;8.80;82.50
810;DHT22;387;48.772;9.186;2024-03-23T08:10:52;8.70;82.80
810;DHT22;387;48.772;9.186;2024-03-23T08:13:19;8.60;82.20
810;DHT22;387;48.772;9.186;2024-03-23T08:15:45;8.50;81.80
810;DHT22;387;48.772;9.186;2024-03-23T08:18:12;8.50;81.80
810;DHT22;387;48.772;9.186;2024-03-23T08:20:38;8.60;81.90
810;DHT22;387;48.772;9.186;2024-03-23T08:23:05;8.60;81.80
810;DHT22;387;48.772;9.186;2024-03-23T08:25:31;8.60;81.70
810;DHT22;387;48.772;9.186;2024-03-23T08:27:57;8.70;81.40
810;DHT22;387;48.772;9.186;2024-03-23T08:30:23;8.70;81.20
810;DHT22;387;48.772;9.186;2024-03-23T08:32:48;8.80;81.40
810;DHT22;387;48.772;9.186;2024-03-23T08:35:14;8.90;81.10
810;DHT22;387;48.772;9.186;2024-03-23T08:37:40;8.90;80.80
810;DHT22;387;48.772;9.186;2024-03-23T08:40:07;8.90;80.60
810;DHT22;387;48.772;9.186;2024-03-23T08:42:34;8.90;80.50
810;DHT22;387;48.772;9.186;2024-03-23T08:44:59;9.00;80.50
810;DHT22;387;48.772;9.186;2024-03-23T08:47:25;8.90;80.60
810;DHT22;387;48.772;9.186;2024-03-23T08:49:51;8.90;81.10
810;DHT22;387;48.772;9.186;2024-03-23T08:52:16;9.00;80.50
810;DHT22;387;48.772;9.186;2024-03-23T08:54:42;9.10;80.00
810;DHT22;387;48.772;9.186;2024-03-23T08:57:08;9.10;79.20
810;DHT22;387;48.772;9.186;2024-03-23T08:59:34;9.00;77.60
810;DHT22;387;48.772;9.186;2024-03-23T09:02:00;9.20;78.90
810;DHT22;387;48.772;9.186;2024-03-23T09:04:25;9.30;76.80
810;DHT22;387;48.772;9.186;2024-03-23T09:06:51;9.40;76.20
810;DHT22;387;48.772;9.186;2024-03-23T09:09:17;9.40;74.50
810;DHT22;387;48.772;9.186;2024-03-23T09:11:43;9.40;74.50
810;DHT22;387;48.772;9.186;2024-03-23T09:14:08;9.40;73.90
810;DHT22;387;48.772;9.186;2024-03-23T09:16:34;9.30;73.90
810;DHT22;387;48.772;9.186;2024-03-23T09:19:00;9.30;74.80
810;DHT22;387;48.772;9.186;2024-03-23T09:21:26;9.40;73.20
810;DHT22;387;48.772;9.186;2024-03-23T09:23:51;9.50;72.30
810;DHT22;387;48.772;9.186;2024-03-23T09:26:17;9.40;69.80
810;DHT22;387;48.772;9.186;2024-03-23T09:28:43;9.40;67.50
810;DHT22;387;48.772;9.186;2024-03-23T09:31:08;9.40;68.20
810;DHT22;387;48.772;9.186;2024-03-23T09:33:35;9.40;68.80
810;DHT22;387;48.772;9.186;2024-03-23T09:36:05;9.30;67.50
810;DHT22;387;48.772;9.186;2024-03-23T09:38:31;9.40;68.20
810;DHT22;387;48.772;9.186;2024-03-23T09:40:57;9.40;67.60
810;DHT22;387;48.772;9.186;2024-03-23T09:43:25;9.40;66.90
810;DHT22;387;48.772;9.186;2024-03-23T09:45:52;9.50;66.30
810;DHT22;387;48.772;9.186;2024-03-23T09:48:18;9.70;64.70
810;DHT22;387;48.772;9.186;2024-03-23T09:50:45;9.80;64.50
810;DHT22;387;48.772;9.186;2024-03-23T09:53:12;9.70;64.50
810;DHT22;387;48.772;9.186;2024-03-23T09:55:39;9.70;64.40
810;DHT22;387;48.772;9.186;2024-03-23T09:58:05;9.60;64.50
810;DHT22;387;48.772;9.186;2024-03-23T10:00:32;9.80;64.70
810;DHT22;387;48.772;9.186;2024-03-23T10:03:01;9.80;63.80
810;DHT22;387;48.772;9.186;2024-03-23T10:05:30;9.70;63.50
810;DHT22;387;48.772;9.186;2024-03-23T10:10:40;9.70;63.40
810;DHT22;387;48.772;9.186;2024-03-23T10:13:06;9.60;63.90
810;DHT22;387;48.772;9.186;2024-03-23T10:15:34;9.70;64.40
810;DHT22;387;48.772;9.186;2024-03-23T10:18:18;9.80;63.70
810;DHT22;387;48.772;9.186;2024-03-23T10:20:47;9.70;64.10
810;DHT22;387;48.772;9.186;2024-03-23T10:23:16;9.80;64.80
810;DHT22;387;48.772;9.186;2024-03-23T10:25:42;9.80;64.80
810;DHT22;387;48.772;9.186;2024-03-23T10:28:08;9.90;65.30
810;DHT22;387;48.772;9.186;2024-03-23T10:30:35;9.90;64.50
810;DHT22;387;48.772;9.186;2024-03-23T10:33:08;9.80;65.40
810;DHT22;387;48.772;9.186;2024-03-23T10:35:33;9.90;65.70
810;DHT22;387;48.772;9.186;2024-03-23T10:37:59;9.90;65.40
810;DHT22;387;48.772;9.186;2024-03-23T10:40:26;9.90;64.80
810;DHT22;387;48.772;9.186;2024-03-23T10:42:53;9.80;64.40
810;DHT22;387;48.772;9.186;2024-03-23T10:45:22;9.80;64.20
810;DHT22;387;48.772;9.186;2024-03-23T10:47:48;9.90;64.40
810;DHT22;387;48.772;9.186;2024-03-23T10:50:14;9.80;64.40
810;DHT22;387;48.772;9.186;2024-03-23T10:52:42;9.70;65.60
810;DHT22;387;48.772;9.186;2024-03-23T10:55:10;9.50;66.40
810;DHT22;387;48.772;9.186;2024-03-23T10:57:42;9.10;67.60
810;DHT22;387;48.772;9.186;2024-03-23T11:00:10;8.60;69.90
810;DHT22;387;48.772;9.186;2024-03-23T11:02:36;8.00;72.40
810;DHT22;387;48.772;9.186;2024-03-23T11:05:01;7.70;75.40
810;DHT22;387;48.772;9.186;2024-03-23T11:07:31;7.30;78.30
810;DHT22;387;48.772;9.186;2024-03-23T11:09:57;6.70;80.20
810;DHT22;387;48.772;9.186;2024-03-23T11:14:52;6.00;83.00
810;DHT22;387;48.772;9.186;2024-03-23T11:17:22;5.90;84.10
810;DHT22;387;48.772;9.186;2024-03-23T11:19:57;6.20;85.00
810;DHT22;387;48.772;9.186;2024-03-23T11:25:21;6.70;84.10
810;DHT22;387;48.772;9.186;2024-03-23T11:27:52;6.60;83.40
810;DHT22;387;48.772;9.186;2024-03-23T11:30:23;6.60;83.30
810;DHT22;387;48.772;9.186;2024-03-23T11:32:51;6.70;83.30
810;DHT22;387;48.772;9.186;2024-03-23T11:35:45;6.90;82.20
810;DHT22;387;48.772;9.186;2024-03-23T11:38:15;7.20;83.10
810;DHT22;387;48.772;9.186;2024-03-23T11:40:45;7.50;82.20
810;DHT22;387;48.772;9.186;2024-03-23T11:43:19;7.70;79.90
810;DHT22;387;48.772;9.186;2024-03-23T11:45:46;8.00;78.40
810;DHT22;387;48.772;9.186;2024-03-23T11:48:14;8.50;78.00
810;DHT22;387;48.772;9.186;2024-03-23T11:50:41;8.90;74.60
810;DHT22;387;48.772;9.186;2024-03-23T11:53:14;9.10;72.70
810;DHT22;387;48.772;9.186;2024-03-23T11:58:17;9.30;68.00
810;DHT22;387;48.772;9.186;2024-03-23T12:01:10;9.40;69.70
810;DHT22;387;48.772;9.186;2024-03-23T12:03:35;9.30;67.90
810;DHT22;387;48.772;9.186;2024-03-23T12:06:02;9.20;66.70
810;DHT22;387;48.772;9.186;2024-03-23T12:13:30;9.20;67.30
810;DHT22;387;48.772;9.186;2024-03-23T12:18:41;9.20;64.20
810;DHT22;387;48.772;9.186;2024-03-23T12:21:07;9.30;64.40
810;DHT22;387;48.772;9.186;2024-03-23T12:23:34;9.10;65.40
810;DHT22;387;48.772;9.186;2024-03-23T12:26:01;9.00;65.60
810;DHT22;387;48.772;9.186;2024-03-23T12:28:27;9.20;66.70
810;DHT22;387;48.772;9.186;2024-03-23T12:30:53;9.40;65.70
810;DHT22;387;48.772;9.186;2024-03-23T12:33:20;9.50;65.70
810;DHT22;387;48.772;9.186;2024-03-23T12:35:45;9.60;65.70
810;DHT22;387;48.772;9.186;2024-03-23T12:38:11;9.80;63.50
810;DHT22;387;48.772;9.186;2024-03-23T12:43:06;10.40;64.70
810;DHT22;387;48.772;9.186;2024-03-23T12:45:33;10.70;62.00
810;DHT22;387;48.772;9.186;2024-03-23T12:47:58;10.70;62.90
810;DHT22;387;48.772;9.186;2024-03-23T12:50:24;10.40;62.50
810;DHT22;387;48.772;9.186;2024-03-23T12:52:49;10.10;63.70
810;DHT22;387;48.772;9.186;2024-03-23T12:55:15;9.60;63.80
810;DHT22;387;48.772;9.186;2024-03-23T12:57:41;9.40;64.40
810;DHT22;387;48.772;9.186;2024-03-23T13:00:07;9.10;64.70
810;DHT22;387;48.772;9.186;2024-03-23T13:02:35;9.20;65.80
810;DHT22;387;48.772;9.186;2024-03-23T13:05:01;9.50;65.60
810;DHT22;387;48.772;9.186;2024-03-23T13:07:27;9.70;65.00
810;DHT22;387;48.772;9.186;2024-03-23T13:09:53;10.10;64.50
810;DHT22;387;48.772;9.186;2024-03-23T13:12:19;10.30;63.90
810;DHT22;387;48.772;9.186;2024-03-23T13:14:46;10.40;63.40
810;DHT22;387;48.772;9.186;2024-03-23T13:17:11;10.10;63.90
810;DHT22;387;48.772;9.186;2024-03-23T13:19:37;10.10;64.40
810;DHT22;387;48.772;9.186;2024-03-23T13:22:03;10.30;65.00
810;DHT22;387;48.772;9.186;2024-03-23T13:24:29;10.40;64.20
810;DHT22;387;48.772;9.186;2024-03-23T13:26:55;10.20;65.00
810;DHT22;387;48.772;9.186;2024-03-23T13:29:21;10.30;65.40
810;DHT22;387;48.772;9.186;2024-03-23T13:31:48;10.40;63.40
810;DHT22;387;48.772;9.186;2024-03-23T13:34:14;10.20;62.30
810;DHT22;387;48.772;9.186;2024-03-23T13:36:44;10.20;63.80
810;DHT22;387;48.772;9.186;2024-03-23T13:39:10;10.30;61.20
810;DHT22;387;48.772;9.186;2024-03-23T13:41:38;10.30;61.60
810;DHT22;387;48.772;9.186;2024-03-23T13:44:04;10.50;61.50
810;DHT22;387;48.772;9.186;2024-03-23T13:46:30;10.90;58.80
810;DHT22;387;48.772;9.186;2024-03-23T13:48:56;10.90;56.20
810;DHT22;387;48.772;9.186;2024-03-23T13:51:25;10.90;55.20
810;DHT22;387;48.772;9.186;2024-03-23T13:53:53;11.10;56.40
810;DHT22;387;48.772;9.186;2024-03-23T13:56:19;11.70;54.90
810;DHT22;387;48.772;9.186;2024-03-23T13:58:44;11.70;53.30
810;DHT22;387;48.772;9.186;2024-03-23T14:01:15;11.50;54.80
810;DHT22;387;48.772;9.186;2024-03-23T14:03:42;11.60;53.80
810;DHT22;387;48.772;9.186;2024-03-23T14:06:09;11.60;54.80
810;DHT22;387;48.772;9.186;2024-03-23T14:08:35;11.30;56.00
810;DHT22;387;48.772;9.186;2024-03-23T14:11:05;10.90;57.60
810;DHT22;387;48.772;9.186;2024-03-23T14:13:30;10.40;62.90
810;DHT22;387;48.772;9.186;2024-03-23T14:15:56;9.80;66.90
810;DHT22;387;48.772;9.186;2024-03-23T14:18:22;8.70;68.60
810;DHT22;387;48.772;9.186;2024-03-23T14:20:48;7.70;74.00
810;DHT22;387;48.772;9.186;2024-03-23T14:23:14;7.40;77.30
810;DHT22;387;48.772;9.186;2024-03-23T14:25:40;7.00;78.40
810;DHT22;387;48.772;9.186;2024-03-23T14:28:06;6.90;79.60
810;DHT22;387;48.772;9.186;2024-03-23T14:30:32;6.90;78.00
810;DHT22;387;48.772;9.186;2024-03-23T14:32:57;7.00;79.30
810;DHT22;387;48.772;9.186;2024-03-23T14:35:23;7.30;78.40
810;DHT22;387;48.772;9.186;2024-03-23T14:37:49;7.40;77.60
810;DHT22;387;48.772;9.186;2024-03-23T14:40:14;7.70;77.70
810;DHT22;387;48.772;9.186;2024-03-23T14:42:40;7.80;75.20
810;DHT22;387;48.772;9.186;2024-03-23T14:45:07;8.10;75.70
810;DHT22;387;48.772;9.186;2024-03-23T14:47:33;8.60;74.80
810;DHT22;387;48.772;9.186;2024-03-23T14:49:58;8.80;71.40
810;DHT22;387;48.772;9.186;2024-03-23T14:52:24;8.90;72.30
810;DHT22;387;48.772;9.186;2024-03-23T14:54:49;8.90;71.70
810;DHT22;387;48.772;9.186;2024-03-23T14:57:15;8.90;71.70
810;DHT22;387;48.772;9.186;2024-03-23T14:59:41;8.50;70.20
810;DHT22;387;48.772;9.186;2024-03-23T15:02:07;8.40;71.80
810;DHT22;387;48.772;9.186;2024-03-23T15:04:33;8.20;71.80
810;DHT22;387;48.772;9.186;2024-03-23T15:06:58;8.10;71.60
810;DHT22;387;48.772;9.186;2024-03-23T15:09:24;8.00;71.10
810;DHT22;387;48.772;9.186;2024-03-23T15:11:50;7.70;70.70
810;DHT22;387;48.772;9.186;2024-03-23T15:14:15;7.90;72.30
810;DHT22;387;48.772;9.186;2024-03-23T15:16:41;8.30;71.40
810;DHT22;387;48.772;9.186;2024-03-23T15:19:09;8.80;69.50
810;DHT22;387;48.772;9.186;2024-03-23T15:21:35;9.10;67.90
810;DHT22;387;48.772;9.186;2024-03-23T15:24:01;9.40;67.70
810;DHT22;387;48.772;9.186;2024-03-23T15:26:26;9.60;66.10
810;DHT22;387;48.772;9.186;2024-03-23T15:28:52;9.70;65.40
810;DHT22;387;48.772;9.186;2024-03-23T15:31:24;10.20;64.50
810;DHT22;387;48.772;9.186;2024-03-23T15:33:50;10.40;64.80
810;DHT22;387;48.772;9.186;2024-03-23T15:36:16;10.30;64.20
810;DHT22;387;48.772;9.186;2024-03-23T15:38:42;10.50;64.80
810;DHT22;387;48.772;9.186;2024-03-23T15:41:08;10.80;65.10
810;DHT22;387;48.772;9.186;2024-03-23T15:43:34;10.80;63.90
810;DHT22;387;48.772;9.186;2024-03-23T15:46:02;11.00;64.50
810;DHT22;387;48.772;9.186;2024-03-23T15:48:29;10.90;62.60
810;DHT22;387;48.772;9.186;2024-03-23T15:50:57;10.60;63.70
810;DHT22;387;48.772;9.186;2024-03-23T15:53:23;10.60;63.70
810;DHT22;387;48.772;9.186;2024-03-23T15:56:00;10.30;64.10
810;DHT22;387;48.772;9.186;2024-03-23T15:58:26;10.20;64.50
810;DHT22;387;48.772;9.186;2024-03-23T16:01:02;10.00;65.10
810;DHT22;387;48.772;9.186;2024-03-23T16:03:29;9.70;65.40
810;DHT22;387;48.772;9.186;2024-03-23T16:05:59;9.30;66.60
810;DHT22;387;48.772;9.186;2024-03-23T16:08:25;9.00;67.30
810;DHT22;387;48.772;9.186;2024-03-23T16:10:52;8.80;67.70
810;DHT22;387;48.772;9.186;2024-03-23T16:13:18;8.70;68.30
810;DHT22;387;48.772;9.186;2024-03-23T16:15:45;8.50;67.90
810;DHT22;387;48.772;9.186;2024-03-23T16:18:11;8.50;68.60
810;DHT22;387;48.772;9.186;2024-03-23T16:20:37;8.30;68.00
810;DHT22;387;48.772;9.186;2024-03-23T16:23:05;8.20;67.70
810;DHT22;387;48.772;9.186;2024-03-23T16:25:31;8.20;68.00
810;DHT22;387;48.772;9.186;2024-03-23T16:27:56;8.00;68.00
810;DHT22;387;48.772;9.186;2024-03-23T16:30:22;7.80;68.00
810;DHT22;387;48.772;9.186;2024-03-23T16:32:48;7.90;68.30
810;DHT22;387;48.772;9.186;2024-03-23T16:35:14;7.80;68.00
810;DHT22;387;48.772;9.186;2024-03-23T16:37:40;7.70;68.60
810;DHT22;387;48.772;9.186;2024-03-23T16:40:07;7.80;68.50
810;DHT22;387;48.772;9.186;2024-03-23T16:42:35;7.70;68.50
810;DHT22;387;48.772;9.186;2024-03-23T16:45:00;7.70;68.60
810;DHT22;387;48.772;9.186;2024-03-23T16:47:26;7.70;68.50
810;DHT22;387;48.772;9.186;2024-03-23T16:49:53;7.70;68.90
810;DHT22;387;48.772;9.186;2024-03-23T16:52:18;7.60;70.20
810;DHT22;387;48.772;9.186;2024-03-23T16:54:44;7.30;73.00
810;DHT22;387;48.772;9.186;2024-03-23T16:57:10;7.00;75.10
810;DHT22;387;48.772;9.186;2024-03-23T16:59:35;6.60;76.50
810;DHT22;387;48.772;9.186;2024-03-23T17:02:01;6.40;78.10
810;DHT22;387;48.772;9.186;2024-03-23T17:04:26;6.30;78.60
810;DHT22;387;48.772;9.186;2024-03-23T17:06:52;6.30;79.30
810;DHT22;387;48.772;9.186;2024-03-23T17:09:18;6.30;78.00
810;DHT22;387;48.772;9.186;2024-03-23T17:11:43;6.30;77.00
810;DHT22;387;48.772;9.186;2024-03-23T17:14:10;6.30;77.80
810;DHT22;387;48.772;9.186;2024-03-23T17:16:37;6.30;77.10
810;DHT22;387;48.772;9.186;2024-03-23T17:19:03;6.40;76.70
810;DHT22;387;48.772;9.186;2024-03-23T17:21:28;6.50;77.00
810;DHT22;387;48.772;9.186;2024-03-23T17:23:54;6.60;76.50
810;DHT22;387;48.772;9.186;2024-03-23T17:26:24;6.60;76.70
810;DHT22;387;48.772;9.186;2024-03-23T17:28:50;6.60;76.10
810;DHT22;387;48.772;9.186;2024-03-23T17:31:19;6.60;75.50
810;DHT22;387;48.772;9.186;2024-03-23T17:33:49;6.70;75.40
810;DHT22;387;48.772;9.186;2024-03-23T17:36:15;6.70;75.40
810;DHT22;387;48.772;9.186;2024-03-23T17:38:41;6.70;75.40
810;DHT22;387;48.772;9.186;2024-03-23T17:41:06;6.80;75.20
810;DHT22;387;48.772;9.186;2024-03-23T17:43:37;6.80;75.70
810;DHT22;387;48.772;9.186;2024-03-23T17:46:03;6.70;76.10
810;DHT22;387;48.772;9.186;2024-03-23T17:48:29;6.50;77.40
810;DHT22;387;48.772;9.186;2024-03-23T17:51:05;6.00;79.90
810;DHT22;387;48.772;9.186;2024-03-23T17:53:36;5.40;81.90
810;DHT22;387;48.772;9.186;2024-03-23T17:56:04;4.80;83.80